Date,TemperatureHighF,TemperatureAvgF,TemperatureLowF,DewpointHighF,DewpointAvgF,DewpointLowF,HumidityHigh,HumidityAvg,HumidityLow,PressureMaxIn,PressureMinIn,WindSpeedMaxMPH,WindSpeedAvgMPH,GustSpeedMaxMPH,PrecipitationSumIn
2012-1-1,78.8,68.9,61.1,64.4,59.7,55.6,92,74,46,30.37,30.26,9,1,10,0.00
2012-1-2,77.3,65.3,53.5,64.3,55.7,32.8,93,73,38,30.29,30.14,21,4,24,0.00
2012-1-3,53.6,49.1,42.0,42.2,26.3,6.0,69,44,16,30.46,30.26,26,5,26,0.00
2012-1-4,64.8,51.8,39.7,49.7,38.0,22.8,69,59,48,30.49,30.36,13,4,15,0.00
2012-1-5,68.2,55.8,46.0,43.4,33.6,12.8,78,47,14,30.40,30.28,12,2,12,0.00
2012-1-6,70.5,57.8,47.0,54.2,48.4,41.8,88,72,48,30.34,30.24,12,1,12,0.00
2012-1-7,74.5,62.5,51.1,55.5,51.7,47.8,92,70,41,30.31,30.22,10,1,10,0.00
2012-1-8,128.0,65.8,53.6,59.6,55.0,44.4,92,70,47,30.34,30.26,12,2,13,0.00
2012-1-9,77.3,71.2,64.1,61.2,59.2,52.3,81,66,44,30.32,30.20,13,4,15,0.00
2012-1-10,78.0,68.2,57.7,62.8,58.3,55.0,92,72,49,30.22,30.09,10,1,11,0.00
2012-1-11,75.8,69.0,60.9,66.4,62.8,58.0,92,81,66,30.10,29.91,18,3,23,0.00
2012-1-12,77.3,72.2,67.4,65.2,62.6,58.3,91,73,56,30.09,29.95,14,5,14,0.00
2012-1-13,72.8,67.1,62.3,62.3,58.3,49.0,87,74,61,30.27,30.08,12,2,15,0.00
2012-1-14,62.4,56.4,52.0,49.9,42.3,34.9,68,59,49,30.45,30.26,16,3,16,0.00
2012-1-15,67.7,56.6,44.3,46.5,39.1,25.3,72,53,29,30.54,30.43,13,2,16,0.00
2012-1-16,71.8,66.1,57.0,56.2,50.9,42.6,70,58,50,30.52,30.41,18,6,22,0.00
2012-1-17,77.8,71.0,62.3,60.7,57.7,52.3,83,63,48,30.41,30.27,16,3,19,0.00
2012-1-18,80.3,69.4,59.2,64.7,59.6,53.7,91,73,42,30.27,30.07,12,2,14,0.00
2012-1-19,73.3,66.7,58.6,61.1,55.7,49.7,90,69,48,30.25,30.10,16,4,18,0.00
2012-1-20,75.9,65.9,53.5,58.8,53.5,50.3,91,66,44,30.31,30.22,14,3,14,0.00
2012-1-21,77.8,70.2,59.2,61.3,57.5,54.1,86,65,49,30.27,30.15,14,3,16,0.00
2012-1-22,77.7,69.3,58.4,63.6,59.8,54.3,90,73,48,30.24,30.15,12,3,13,0.00
2012-1-23,76.6,72.0,68.5,66.2,64.4,62.9,87,77,64,30.23,30.18,15,3,15,0.06
2012-1-24,78.8,72.8,66.7,69.1,65.3,60.2,92,78,58,30.28,30.19,15,4,16,0.14
2012-1-25,78.4,74.3,71.6,67.7,65.0,62.8,80,73,64,30.29,30.19,16,6,16,0.01
2012-1-26,79.0,75.3,70.7,67.5,65.4,62.9,86,72,61,30.20,30.09,18,6,19,0.00
2012-1-27,83.5,76.3,69.6,68.6,65.4,59.8,83,70,48,30.16,30.04,15,4,18,0.01
2012-1-28,80.5,72.2,67.8,66.1,63.9,60.3,89,76,51,30.26,30.15,8,1,10,0.00
2012-1-29,75.3,71.1,68.4,62.7,59.9,56.1,77,68,58,30.36,30.22,14,3,14,0.01
2012-1-30,74.9,71.0,68.8,59.2,56.8,54.8,68,61,52,30.41,30.30,21,7,22,0.00
2012-1-31,74.8,71.0,68.2,62.0,58.1,49.4,72,64,54,30.43,30.33,16,6,18,0.00
2012-2-1,77.5,73.1,69.9,66.5,62.7,60.1,87,70,60,30.35,30.24,14,5,15,0.04
2012-2-2,72.5,69.1,66.1,68.1,65.7,58.4,93,89,63,30.27,30.19,16,2,18,0.01
2012-2-3,77.0,73.3,68.8,66.1,63.7,61.5,84,72,63,30.31,30.21,20,7,22,0.00
2012-2-4,76.8,73.1,71.2,67.9,64.8,62.1,85,75,67,30.28,30.17,22,8,22,0.00
2012-2-5,80.0,74.3,69.4,68.5,66.9,62.4,90,78,62,30.18,30.07,13,2,15,0.00
2012-2-6,78.7,72.6,67.9,70.2,67.9,65.7,94,85,71,30.17,30.08,16,3,19,0.00
2012-2-7,82.3,74.5,70.6,71.3,69.0,67.0,92,83,64,30.14,30.02,10,2,12,0.00
2012-2-8,77.3,70.8,67.8,68.6,65.8,62.5,93,85,69,30.16,30.07,10,3,14,0.00
2012-2-9,75.7,72.0,67.9,66.7,63.7,61.3,84,75,65,30.20,30.10,19,6,19,0.00
2012-2-10,78.0,73.1,70.3,72.4,68.5,65.4,94,86,77,30.17,29.98,15,4,19,0.00
2012-2-11,70.5,65.9,54.5,66.8,57.0,44.4,95,75,48,30.18,29.97,23,7,27,0.01
2012-2-12,58.9,51.9,45.0,44.6,40.3,31.5,81,65,53,30.36,30.18,20,6,20,0.00
2012-2-13,69.0,58.9,47.0,53.4,46.6,42.3,88,66,45,30.34,30.23,14,4,16,0.00
2012-2-14,75.3,68.2,56.6,59.6,56.1,52.3,87,66,51,30.25,30.17,15,3,16,0.00
2012-2-15,80.2,71.0,60.7,64.6,60.7,57.0,90,71,49,30.31,30.22,13,2,14,0.00
2012-2-16,79.5,74.9,69.4,65.0,63.3,59.2,82,68,53,30.29,30.18,16,4,16,0.00
2012-2-17,82.3,73.6,66.5,67.5,64.6,62.1,91,75,52,30.20,30.08,12,2,13,0.00
2012-2-18,80.3,73.6,66.4,67.8,64.8,62.5,91,75,56,30.13,30.01,13,3,14,0.00
2012-2-19,85.9,76.0,68.5,70.1,66.5,60.9,90,74,49,30.06,29.92,24,6,24,0.00
2012-2-20,73.0,67.3,60.5,61.7,56.1,52.6,81,68,50,30.27,30.03,17,5,20,0.00
2012-2-21,75.7,70.6,66.1,59.0,55.2,52.2,70,58,47,30.31,30.23,15,5,16,0.00
2012-2-22,80.2,71.3,62.2,64.1,60.7,57.3,88,70,48,30.23,30.05,14,3,16,0.00
2012-2-23,86.8,74.1,63.7,68.2,63.0,59.2,92,70,42,30.10,30.00,15,3,15,0.00
2012-2-24,85.9,75.6,66.6,71.5,66.7,60.7,93,75,44,30.15,30.05,16,4,19,0.00
2012-2-25,77.0,70.9,68.2,71.3,63.9,60.0,95,79,63,30.30,30.12,16,4,19,0.00
2012-2-26,74.6,71.8,69.4,66.6,63.5,59.9,79,75,71,30.37,30.28,21,8,22,0.00
2012-2-27,81.8,76.0,72.5,70.2,67.4,65.4,83,75,60,30.37,30.30,18,7,19,0.00
2012-2-28,80.3,76.2,73.0,69.2,67.5,64.5,84,75,61,30.35,30.27,14,5,15,0.00
2012-2-29,80.6,75.4,71.0,70.9,67.9,66.4,90,78,63,30.32,30.20,13,4,15,0.03
2012-3-1,81.4,74.9,68.6,70.2,67.6,65.5,91,79,62,30.23,30.10,17,2,19,0.00
2012-3-2,83.1,75.3,67.2,71.2,66.6,63.1,92,76,54,30.16,30.07,17,4,19,0.00
2012-3-3,84.3,77.5,73.4,70.9,68.4,65.4,84,74,54,30.09,29.96,21,6,22,0.00
2012-3-4,80.3,68.8,56.3,71.5,54.9,35.2,91,64,29,30.29,29.92,36,6,36,0.00
2012-3-5,71.5,62.1,53.4,53.2,45.8,35.4,74,56,44,30.44,30.28,17,4,18,0.00
2012-3-6,76.2,69.2,57.4,61.8,54.9,47.6,83,61,46,30.47,30.37,26,9,28,0.00
2012-3-7,75.9,71.9,69.2,65.5,60.6,53.9,80,68,58,30.46,30.36,23,10,25,0.01
2012-3-8,77.5,73.7,69.6,68.5,66.1,64.0,91,77,67,30.37,30.26,24,8,24,0.10
2012-3-9,81.1,76.2,73.0,67.7,66.3,64.1,80,72,60,30.30,30.19,16,5,18,0.00
2012-3-10,82.5,74.4,69.6,67.8,65.9,61.0,88,75,50,30.29,30.17,14,4,18,0.00
2012-3-11,80.5,73.7,69.5,69.1,65.0,61.7,90,75,54,30.37,30.26,27,8,27,0.00
2012-3-12,76.8,72.8,70.3,64.0,60.6,54.1,79,66,46,30.39,30.28,19,8,21,0.00
2012-3-13,78.7,73.2,68.5,60.9,58.5,56.8,68,60,48,30.33,30.26,15,4,21,0.00
2012-3-14,78.3,73.8,70.6,65.4,61.6,58.2,77,66,53,30.31,30.22,18,5,18,0.00
2012-3-15,73.3,72.8,72.4,65.6,64.6,63.3,78,75,73,30.28,30.24,17,8,18,0.00
2012-3-16,79.5,75.9,72.4,63.7,62.3,59.9,71,63,52,30.32,30.23,16,6,16,0.00
2012-3-17,79.2,73.8,66.8,62.8,60.8,57.9,80,64,52,30.32,30.23,16,5,16,0.00
2012-3-18,79.5,74.6,70.5,67.3,62.3,59.4,80,66,57,30.32,30.23,17,6,22,0.00
2012-3-19,79.3,74.7,71.2,64.6,59.7,54.3,74,60,45,30.28,30.18,15,6,22,0.00
2012-3-20,79.9,75.4,70.3,66.7,63.0,58.5,83,66,50,30.22,30.13,19,7,20,0.02
2012-3-21,81.5,75.9,69.5,67.8,65.7,57.6,91,71,48,30.25,30.15,21,8,21,0.21
2012-3-22,81.3,76.7,73.8,67.2,65.0,61.8,77,68,53,30.27,30.18,19,6,21,0.00
2012-3-23,81.0,76.0,70.5,66.7,62.7,57.6,84,64,47,30.23,30.13,17,5,17,0.00
2012-3-24,82.8,75.5,67.2,65.2,62.5,57.8,86,65,45,30.15,30.04,16,3,16,0.00
2012-3-25,82.5,75.9,69.6,66.8,62.9,57.7,84,65,47,30.08,29.89,24,6,24,0.07
2012-3-26,81.1,72.1,64.4,60.3,55.0,44.7,81,57,30,30.10,29.97,14,4,17,0.00
2012-3-27,80.5,74.7,69.3,65.1,61.0,55.5,83,63,51,30.27,30.08,20,6,20,0.03
2012-3-28,79.9,74.7,71.6,65.8,60.7,56.7,80,62,54,30.28,30.17,17,7,20,0.00
2012-3-29,80.4,74.2,67.1,63.5,60.3,57.7,83,63,47,30.19,30.08,12,3,20,0.00
2012-3-30,81.0,73.3,63.6,63.8,59.6,57.1,88,64,47,30.18,30.09,13,3,14,0.00
2012-3-31,83.7,74.2,66.2,69.7,65.1,60.4,90,74,51,30.13,29.95,16,3,21,0.42
2012-4-1,84.7,74.8,67.9,67.9,65.2,58.9,92,74,42,30.05,29.96,12,3,12,0.03
2012-4-2,85.3,76.4,68.5,70.3,66.9,60.7,92,74,45,30.02,29.95,10,2,12,0.00
2012-4-3,86.7,77.3,68.0,68.5,64.8,52.9,86,67,36,30.08,29.99,13,2,13,0.00
2012-4-4,85.8,77.7,69.9,70.3,66.5,59.8,90,70,44,30.09,29.92,16,4,18,0.00
2012-4-5,88.5,77.4,70.5,67.3,63.5,55.6,85,65,34,29.99,29.82,22,5,22,0.00
2012-4-6,87.5,78.4,72.3,71.7,65.6,54.6,91,68,35,30.00,29.82,25,6,28,0.06
2012-4-7,79.0,73.9,69.8,65.8,60.8,56.8,82,64,52,30.21,29.99,20,7,23,0.00
2012-4-8,76.9,72.7,69.4,58.4,54.8,51.8,64,54,44,30.26,30.18,17,6,18,0.00
2012-4-9,79.8,73.2,65.5,60.8,59.0,57.0,79,62,49,30.20,30.10,14,4,18,0.00
2012-4-10,81.6,73.9,63.4,63.8,58.2,52.6,86,60,37,30.18,30.09,13,3,16,0.00
2012-4-11,85.7,75.2,65.6,64.1,59.1,49.8,83,60,30,30.16,30.04,15,3,15,0.00
2012-4-12,81.0,75.6,69.8,65.6,62.8,59.0,75,65,50,30.15,30.04,15,4,17,0.00
2012-4-13,81.5,74.9,69.0,67.8,65.2,61.9,91,73,55,30.22,30.10,16,6,18,0.40
2012-4-14,78.2,73.6,68.2,67.4,61.3,57.2,93,66,51,30.33,30.18,27,9,27,0.00
2012-4-15,79.8,74.8,70.8,60.9,58.2,54.9,68,57,48,30.32,30.25,18,8,27,0.00
2012-4-16,82.0,76.6,73.5,62.8,57.5,51.0,67,52,38,30.31,30.21,20,7,21,0.00
2012-4-17,80.8,76.0,72.9,64.5,60.4,54.5,74,59,43,30.27,30.16,17,6,20,0.00
2012-4-18,81.4,76.5,71.7,64.6,62.4,58.7,72,62,49,30.21,30.07,16,5,20,0.00
2012-4-19,82.8,77.2,73.7,66.7,65.5,63.4,76,67,54,30.11,29.99,18,5,18,0.00
2012-4-20,84.8,76.5,67.9,69.3,66.5,62.6,92,72,49,30.05,29.92,18,4,21,0.01
2012-4-21,77.0,72.7,68.2,69.9,66.5,62.7,94,81,63,30.01,29.78,21,5,22,0.00
2012-4-22,81.3,74.3,66.0,70.7,64.5,58.7,93,73,48,29.84,29.65,23,7,24,0.00
2012-4-23,78.8,70.2,62.9,61.8,49.7,41.9,78,50,31,30.02,29.82,26,8,28,0.00
2012-4-24,75.1,65.5,57.9,49.2,42.9,30.4,69,47,20,30.14,29.99,16,4,19,0.00
2012-4-25,79.0,68.4,55.7,54.3,49.8,44.3,70,53,36,30.22,30.13,13,3,19,0.00
2012-4-26,80.5,72.4,60.8,60.9,58.2,54.1,85,62,43,30.25,30.16,13,3,14,0.00
2012-4-27,81.5,74.8,67.1,68.8,63.0,59.0,84,67,50,30.23,30.15,14,3,14,0.00
2012-4-28,80.6,75.0,68.3,72.6,68.5,62.0,94,81,56,30.19,30.13,14,4,16,0.13
2012-4-29,76.7,74.4,71.7,70.8,68.0,64.6,91,81,68,30.19,30.10,29,8,29,0.00
2012-4-30,77.2,74.4,71.8,69.7,67.5,64.7,89,79,72,30.17,30.10,29,11,29,0.01
2012-5-1,81.3,76.4,71.9,71.5,68.9,66.7,91,78,65,30.18,30.11,21,8,23,0.00
2012-5-2,82.3,78.1,75.2,70.6,68.4,66.5,81,72,60,30.20,30.10,19,8,21,0.00
2012-5-3,83.4,78.2,74.8,69.6,68.0,66.4,79,71,59,30.20,30.13,17,6,20,0.00
2012-5-4,83.3,78.0,74.1,68.7,66.1,63.0,78,67,54,30.20,30.11,16,5,16,0.00
2012-5-5,84.4,78.5,73.4,69.3,67.1,63.2,81,69,50,30.13,30.04,13,4,15,0.00
2012-5-6,88.0,78.6,70.8,69.7,67.5,61.3,89,70,42,30.09,29.98,12,3,15,0.00
2012-5-7,86.4,78.0,71.5,70.7,67.9,62.3,91,72,49,30.03,29.94,16,4,16,0.00
2012-5-8,84.8,76.0,69.8,71.9,68.6,65.5,93,79,57,30.02,29.95,16,2,19,0.00
2012-5-9,86.7,76.1,70.7,73.5,69.0,64.4,91,80,50,30.01,29.89,16,2,19,0.00
2012-5-10,88.7,77.9,72.9,72.8,70.4,64.8,93,79,46,30.00,29.88,16,4,16,0.00
2012-5-11,84.9,78.6,72.6,71.7,69.5,67.5,92,74,59,30.19,29.98,17,6,19,0.00
2012-5-12,78.1,77.7,72.6,69.9,68.9,63.3,78,75,70,30.20,30.16,16,7,17,0.19
2012-5-15,88.3,79.8,71.6,73.9,69.9,67.5,89,73,52,30.13,30.03,14,3,16,0.07
2012-5-16,81.7,77.0,72.0,72.6,70.4,66.4,91,81,62,30.12,30.02,8,1,10,0.01
2012-5-17,83.5,75.9,68.2,72.4,69.3,63.5,94,81,61,30.07,29.95,15,2,26,0.00
2012-5-18,87.3,77.1,69.7,72.3,67.5,61.2,93,74,43,30.04,29.97,14,2,26,0.00
2012-5-19,83.8,74.8,70.5,73.8,68.8,65.9,92,82,61,30.08,29.98,11,1,20,0.00
2012-5-20,85.1,77.2,70.0,73.1,69.1,66.3,92,77,56,30.08,29.99,13,3,14,0.01
2012-5-21,85.1,78.8,70.3,71.5,67.8,64.5,90,70,52,30.08,30.01,14,3,14,0.00
2012-5-22,81.5,76.1,71.6,72.4,70.0,67.6,91,82,67,30.08,30.00,14,2,18,0.00
2012-5-23,85.0,78.1,73.8,73.1,70.8,68.8,88,79,60,30.03,29.95,16,4,18,0.00
2012-5-24,80.3,75.9,73.1,73.6,70.6,67.2,93,84,72,30.00,29.92,16,3,18,0.00
2012-5-25,86.4,78.8,71.2,74.0,70.8,66.6,93,78,53,30.13,29.98,14,3,15,0.01
2012-5-26,85.4,80.2,75.6,73.4,71.3,68.5,89,75,59,30.13,30.05,14,3,15,0.00
2012-5-27,89.8,78.3,71.0,73.1,70.0,61.8,93,78,42,30.07,29.93,21,3,23,0.00
2012-5-28,87.1,79.4,72.5,73.1,71.3,68.8,89,77,58,30.07,29.98,22,4,23,0.00
2012-5-29,88.0,79.4,70.0,75.9,72.1,65.9,93,79,57,30.07,29.98,30,3,32,0.00
2012-5-30,91.5,81.6,72.8,73.2,69.8,63.6,92,69,42,30.05,29.92,16,4,32,0.00
2012-5-31,85.5,79.8,75.5,73.1,70.6,66.5,85,74,57,30.05,29.96,14,3,18,0.00
2012-6-1,83.3,77.1,72.7,74.9,72.2,69.8,91,85,68,30.09,29.97,14,3,16,0.00
2012-6-2,89.1,81.6,75.5,74.3,70.7,66.5,89,71,52,30.07,29.98,16,4,16,0.00
2012-6-3,89.3,80.1,73.3,72.2,67.4,61.0,90,67,41,30.13,30.04,13,3,14,0.00
2012-6-4,79.7,78.0,76.4,67.9,67.4,66.9,74,70,66,30.10,30.03,2,0,3,0.00
2012-6-6,85.8,83.7,81.3,74.9,71.7,65.8,78,68,54,30.06,29.99,11,1,14,0.00
2012-6-7,91.6,84.2,80.0,76.9,72.9,66.7,86,70,48,30.07,30.00,16,3,18,0.00
2012-6-8,86.9,79.5,71.8,75.8,73.0,69.5,93,81,65,30.08,30.00,18,2,18,0.00
2012-6-9,87.4,80.4,74.0,75.4,73.0,70.4,92,79,59,30.13,30.04,17,3,18,0.00
2012-6-10,88.3,82.5,76.9,76.5,73.6,72.0,90,75,60,30.23,30.09,16,4,17,0.00
2012-6-11,85.8,82.1,78.9,72.9,68.4,64.8,77,64,51,30.22,30.14,14,5,16,0.00
2012-6-12,85.0,80.7,77.2,68.0,65.8,63.8,71,61,51,30.18,30.07,13,4,16,0.00
2012-6-13,88.5,83.0,75.2,69.8,67.6,63.5,79,61,47,30.09,29.98,13,4,16,0.00
2012-6-14,89.8,81.0,73.5,75.6,70.4,66.7,88,71,51,30.09,29.99,12,2,16,0.00
2012-6-15,87.0,79.6,74.3,76.3,71.7,66.3,90,78,58,30.12,30.00,15,3,16,0.00
2012-6-16,84.8,79.7,72.6,72.2,68.4,64.1,91,69,56,30.13,30.03,19,5,22,0.00
2012-6-17,84.8,80.6,77.3,66.9,64.8,61.1,67,59,50,30.13,30.04,18,6,22,0.00
2012-6-18,85.5,81.0,77.9,67.5,64.7,61.7,66,58,48,30.15,30.04,19,7,19,0.00
2012-6-19,85.0,80.5,76.8,73.2,68.1,64.1,88,66,54,30.14,30.07,23,9,23,0.06
2012-6-20,82.0,77.5,74.1,73.9,72.2,69.2,92,84,67,30.12,30.04,30,4,30,0.00
2012-6-21,86.7,80.4,74.3,74.2,72.4,69.5,92,77,62,30.10,29.97,17,5,30,0.00
2012-6-22,85.6,79.2,74.3,75.2,73.0,71.0,91,82,63,30.05,29.94,16,3,18,0.00
2012-6-23,84.7,79.1,73.3,75.2,72.9,69.6,92,82,68,30.12,29.95,16,4,18,0.00
2012-6-24,82.4,78.7,74.8,76.8,73.8,70.0,94,85,77,30.09,29.95,20,6,21,0.00
2012-6-25,89.6,83.9,81.3,76.1,73.5,67.1,82,72,49,29.97,29.85,21,7,23,0.00
2012-6-26,90.8,83.9,78.9,75.3,70.6,64.6,83,66,43,29.87,29.80,30,8,32,0.00
2012-6-27,89.1,82.3,75.7,75.7,73.1,69.5,88,75,56,30.10,29.84,26,8,32,0.00
2012-6-28,87.3,80.6,72.5,72.0,69.1,65.8,87,69,55,30.16,30.08,12,3,26,0.00
2012-6-29,90.3,82.8,74.0,73.1,68.8,63.2,85,64,44,30.15,30.04,12,3,12,0.00
2012-6-30,91.8,83.8,77.1,74.7,71.3,65.6,82,67,47,30.10,30.02,13,4,13,0.00
2012-7-1,89.9,84.1,77.8,74.3,71.6,67.3,84,67,49,30.18,30.08,13,4,14,0.00
2012-7-2,92.0,83.7,78.0,75.1,72.1,65.6,84,69,45,30.20,30.09,18,3,19,0.00
2012-7-3,90.3,83.8,77.1,74.9,72.5,69.1,86,70,53,30.17,30.09,14,4,19,0.00
2012-7-4,91.2,84.5,78.4,75.8,72.8,68.1,84,69,50,30.19,30.11,14,4,16,0.00
2012-7-5,89.8,82.9,77.7,75.1,72.3,67.8,83,71,55,30.16,30.07,15,3,17,0.06
2012-7-6,90.0,83.4,75.8,75.5,72.0,69.0,88,70,55,30.15,30.10,14,4,15,0.01
2012-7-7,89.3,84.3,79.8,74.8,72.6,69.4,81,68,54,30.19,30.12,18,4,18,0.00
2012-7-8,88.3,83.8,79.3,75.4,73.2,70.0,84,71,57,30.18,30.11,13,4,16,0.00
2012-7-9,89.1,83.3,77.4,75.1,72.6,69.8,87,71,57,30.15,30.06,14,3,14,0.00
2012-7-10,88.9,82.2,74.1,75.2,72.3,66.5,88,73,56,30.14,30.04,20,4,22,0.16
2012-7-11,84.2,77.5,72.9,74.4,71.5,67.6,92,82,59,30.17,30.05,15,2,22,0.00
2012-7-12,78.7,77.6,76.9,71.6,70.6,69.3,80,79,77,30.12,30.07,8,1,14,0.00
2012-7-13,87.8,84.7,81.7,72.9,70.8,67.8,72,63,55,30.15,30.08,17,7,18,0.00
2012-7-14,88.3,83.1,78.5,74.7,71.4,67.6,83,68,55,30.18,30.08,18,6,19,0.00
2012-7-15,90.0,80.0,73.8,74.5,71.0,65.0,91,76,46,30.21,30.13,16,3,19,0.00
2012-7-16,85.3,77.2,72.5,75.1,71.8,68.7,92,84,63,30.21,30.09,19,2,19,0.00
2012-7-17,90.7,78.1,73.8,76.4,72.7,69.3,91,84,50,30.15,30.07,18,2,19,0.00
2012-7-18,90.3,82.1,73.2,75.6,72.1,68.2,89,73,50,30.23,30.10,17,3,19,0.00
2012-7-19,90.1,84.0,77.8,76.6,73.5,69.9,88,72,54,30.28,30.19,13,3,18,0.00
2012-7-20,88.9,84.5,80.3,75.4,73.7,71.6,80,70,58,30.24,30.14,15,5,17,0.00
2012-7-21,90.3,85.2,81.7,75.6,74.4,73.1,79,71,58,30.21,30.13,14,6,15,0.00
2012-7-22,88.0,80.7,74.6,76.5,73.6,69.8,91,79,66,30.24,30.14,17,4,18,0.00
2012-7-23,86.3,80.6,74.3,76.1,73.0,68.9,90,78,59,30.27,30.19,18,4,20,0.00
2012-7-24,91.0,82.5,72.2,77.2,73.7,64.3,85,76,57,30.24,30.11,31,3,31,0.00
2012-7-25,91.8,83.6,75.7,75.9,72.8,69.5,88,71,52,30.16,30.08,11,3,31,0.00
2012-7-26,90.3,81.1,77.3,74.2,72.4,68.8,86,76,51,30.14,30.08,10,1,14,0.00
2012-7-31,91.4,86.5,80.4,72.5,70.1,64.1,71,59,43,30.13,30.05,14,5,16,0.00
2012-8-1,92.4,83.0,75.0,74.7,71.2,65.6,82,69,45,30.12,30.02,19,2,21,0.02
2012-8-2,93.0,84.8,77.7,76.4,73.2,67.6,88,70,49,30.10,30.01,15,3,16,0.00
2012-8-3,89.0,81.9,75.0,76.8,73.8,69.4,89,77,61,30.12,30.02,25,2,28,0.04
2012-8-4,89.0,82.7,76.6,77.0,73.9,70.2,90,75,56,30.16,30.04,18,4,28,0.00
2012-8-5,89.8,85.0,79.8,76.0,73.7,69.6,81,69,58,30.19,30.11,15,6,18,0.00
2012-8-6,87.8,80.8,74.4,76.1,73.6,70.6,90,79,60,30.17,30.08,18,4,18,0.00
2012-8-7,89.9,84.1,74.8,77.2,74.1,70.3,92,73,54,30.16,30.06,15,3,18,0.00
2012-8-8,90.6,85.3,80.9,75.1,73.4,70.9,79,68,55,30.15,30.08,11,3,15,0.00
2012-8-9,90.3,85.4,81.9,75.4,73.7,71.0,76,68,57,30.13,30.02,14,4,14,0.00
2012-8-10,89.4,81.8,77.7,74.7,72.3,68.8,84,73,54,30.10,30.02,16,3,21,0.00
2012-8-11,89.0,79.8,74.0,76.7,72.6,69.1,92,80,55,30.14,30.04,20,3,21,0.00
2012-8-12,92.1,79.9,75.0,78.4,73.7,70.2,93,83,51,30.16,30.08,18,2,20,0.00
2012-8-13,90.3,83.1,76.1,80.3,74.7,72.3,93,77,57,30.17,30.08,12,2,14,0.00
2012-8-14,92.1,84.1,78.9,77.7,73.8,70.6,87,72,51,30.16,30.06,13,1,13,0.00
2012-8-15,92.7,85.0,78.8,76.9,73.8,70.6,85,70,52,30.15,30.08,13,2,14,0.00
2012-8-16,89.2,84.1,81.4,75.3,74.1,72.5,81,72,60,30.16,30.09,10,1,14,0.00
2012-8-17,92.9,82.0,75.5,75.1,72.1,63.7,86,74,44,30.16,30.02,20,1,23,0.00
2012-8-18,95.3,81.4,75.8,75.3,71.7,64.4,88,75,37,30.11,30.02,15,2,23,0.00
2012-8-19,93.1,84.7,78.5,74.8,73.1,68.2,85,70,47,30.11,30.01,17,2,17,0.00
2012-8-20,91.3,84.4,79.1,75.7,72.1,66.3,85,68,46,30.12,30.01,20,3,24,0.00
2012-8-21,93.3,82.3,73.8,75.2,71.4,65.8,88,71,44,30.19,30.07,25,2,26,0.00
2012-8-22,91.5,80.8,74.2,75.8,71.7,68.2,90,75,56,30.20,30.11,15,1,26,0.00
2012-8-23,90.8,83.6,76.3,77.0,72.4,69.6,87,70,52,30.18,30.11,12,3,15,0.00
2012-8-24,89.0,80.9,71.5,75.5,71.3,65.3,90,73,55,30.16,30.02,27,4,32,0.00
2012-8-25,85.7,78.9,70.9,76.1,72.1,67.6,92,80,68,30.10,29.99,19,4,22,0.00
2012-8-26,84.4,79.8,75.2,77.1,74.4,70.2,93,84,65,30.00,29.83,34,10,36,0.00
2012-8-27,85.3,80.8,74.4,78.0,75.5,71.0,95,84,69,30.05,29.85,27,10,36,0.00
2012-8-28,90.0,82.6,76.9,78.2,75.4,69.2,91,79,61,30.12,30.02,20,5,35,0.00
2012-8-29,90.1,83.6,79.0,76.0,74.3,69.3,89,74,54,30.11,30.02,15,4,20,0.00
2012-8-30,90.2,83.7,78.1,76.5,73.6,69.1,87,72,52,30.20,30.06,13,3,17,0.00
2012-8-31,89.3,83.7,78.4,77.3,74.2,70.8,87,74,55,30.24,30.16,11,3,12,0.00
2012-9-1,88.5,83.3,78.9,75.9,73.5,68.7,85,73,59,30.21,30.12,17,4,18,0.00
2012-9-2,86.9,82.1,75.9,70.9,68.1,65.3,78,63,51,30.15,30.07,15,3,18,0.00
2012-9-3,88.6,81.8,75.1,74.1,70.3,65.4,86,69,49,30.15,30.07,15,3,17,0.00
2012-9-4,87.1,80.7,74.1,73.2,69.7,60.7,84,70,55,30.13,30.03,22,3,24,0.00
2012-9-5,89.6,79.6,72.5,72.8,70.4,63.8,87,75,49,30.12,30.02,24,3,24,0.00
2012-9-6,89.0,79.3,74.3,75.9,70.1,65.1,88,74,50,30.13,30.06,18,2,24,0.00
2012-9-7,90.3,80.2,72.5,74.9,71.7,66.9,91,77,49,30.10,30.01,24,2,26,0.00
2012-9-8,92.8,83.0,75.8,74.4,71.3,61.1,86,69,36,30.08,29.98,14,2,26,0.00
2012-9-9,93.2,84.5,77.3,74.0,70.7,64.9,87,65,41,30.07,29.97,18,5,22,0.00
2012-9-10,89.7,80.7,76.0,75.5,73.3,69.7,90,79,55,30.10,30.02,21,3,22,0.00
2012-9-11,87.5,80.7,75.9,78.6,73.8,70.6,92,80,65,30.16,30.07,21,4,21,0.00
2012-9-12,87.2,82.6,76.4,74.4,71.2,67.8,88,69,57,30.16,30.08,22,7,26,0.00
2012-9-13,85.8,82.0,75.3,73.7,71.0,68.8,88,70,59,30.16,30.07,22,7,26,0.00
2012-9-14,87.4,81.9,75.4,74.8,72.0,69.7,87,73,59,30.12,30.05,17,4,17,0.00
2012-9-15,86.0,80.3,73.8,76.7,72.0,68.2,89,76,62,30.14,30.07,18,4,18,0.00
2012-9-16,85.5,82.2,79.8,73.0,71.2,69.5,75,70,62,30.15,30.05,13,4,14,0.00
2012-9-17,86.5,81.5,78.7,73.7,72.1,69.3,81,73,63,30.13,30.01,16,4,16,0.00
2012-9-18,92.8,82.7,75.1,75.9,71.9,68.1,91,72,46,30.09,29.97,18,3,18,0.00
2012-9-19,89.8,80.9,74.7,74.9,73.0,68.8,91,78,54,30.17,30.00,10,2,18,0.01
2012-9-20,87.4,81.2,74.3,75.8,71.5,68.7,89,73,57,30.16,30.02,13,2,14,6.10
2012-9-21,87.0,80.0,73.9,74.7,71.6,67.6,90,77,55,30.08,29.99,12,1,13,5.80
2012-9-22,77.8,74.6,73.8,73.8,71.4,70.5,91,89,87,30.08,30.02,8,1,10,2.80
2012-9-25,87.1,83.0,79.8,72.8,70.9,69.7,77,67,58,30.17,30.08,13,4,13,0.00
2012-9-26,86.5,82.3,77.2,73.5,71.6,68.4,79,70,60,30.18,30.10,10,2,11,0.00
2012-9-27,88.5,82.8,78.1,76.1,73.0,69.4,86,73,56,30.18,30.07,14,2,15,0.30
2012-9-28,86.5,80.8,77.1,75.4,73.2,70.9,88,78,64,30.12,30.02,10,1,15,0.40
2012-9-29,88.7,81.5,75.6,77.7,73.1,69.9,91,77,56,30.07,29.95,13,2,13,0.00
2012-9-30,88.5,82.3,75.5,76.6,72.5,68.8,89,73,55,30.00,29.88,15,3,15,0.00
2012-10-1,88.5,80.7,74.8,75.1,72.6,70.4,91,77,57,29.97,29.86,20,4,20,5.70
2012-10-2,87.8,78.3,74.4,76.6,73.4,71.2,92,85,64,30.16,29.95,19,3,24,18.20
2012-10-3,89.3,82.5,75.2,78.4,75.1,72.2,92,79,59,30.26,30.14,12,3,24,0.00
2012-10-4,89.3,83.7,78.3,77.0,74.9,72.5,87,75,60,30.26,30.15,15,3,15,3.80
2012-10-5,88.4,83.9,81.1,75.8,73.8,71.1,82,72,58,30.20,30.02,11,4,12,0.20
2012-10-6,89.5,81.4,73.7,75.4,72.7,68.3,89,75,56,30.08,29.94,11,2,14,7.70
2012-10-7,85.5,79.0,72.8,76.9,72.7,67.5,92,82,64,30.07,29.97,12,2,12,0.10
2012-10-8,88.4,83.0,79.0,75.3,73.2,69.3,82,73,59,30.10,30.00,14,2,14,0.10
2012-10-9,87.5,81.9,76.3,75.4,73.1,67.7,90,76,54,30.12,30.03,12,2,14,0.00
2012-10-10,85.5,80.9,77.9,75.7,72.0,68.3,88,75,63,30.16,30.07,15,3,17,0.20
2012-10-11,79.8,78.8,78.1,68.6,67.6,66.6,69,68,68,30.15,30.13,8,2,17,0.00
2012-10-22,83.7,80.8,78.4,67.1,64.3,59.9,65,58,46,30.11,30.05,20,8,22,0.00
2012-10-23,83.8,79.4,72.8,70.8,65.6,58.0,91,63,50,30.10,30.02,22,8,24,1.40
2012-10-24,84.3,80.2,72.9,72.4,68.8,64.8,90,69,54,30.07,29.95,23,9,25,0.00
2012-10-25,81.3,79.1,72.1,73.2,69.6,64.7,88,73,66,29.95,29.76,33,9,34,2.20
2012-10-26,80.2,75.0,70.5,71.4,67.6,64.1,94,78,62,29.76,29.55,28,8,32,10.30
2012-10-27,78.4,72.9,69.4,67.0,62.3,59.8,88,70,56,29.78,29.55,31,10,32,2.80
2012-10-28,80.0,72.4,66.1,63.8,60.3,54.4,85,67,48,29.88,29.75,24,8,31,0.00
2012-10-29,71.0,63.9,56.7,55.2,46.4,35.7,75,55,29,29.96,29.84,22,8,22,0.00
2012-10-30,71.5,61.3,53.6,49.1,44.5,37.6,79,55,37,30.09,29.92,22,5,22,0.00
2012-10-31,72.3,62.9,52.9,54.7,49.5,42.1,92,64,39,30.17,30.06,16,2,22,0.00
2012-11-1,79.8,68.1,56.0,61.1,57.2,53.2,92,70,42,30.16,30.04,14,3,18,0.00
2012-11-2,80.1,70.1,61.7,63.4,54.9,42.4,92,63,27,30.18,30.10,11,2,14,0.00
2012-11-3,80.1,68.9,58.4,61.5,56.9,48.5,88,67,35,30.23,30.14,11,1,11,0.00
2012-11-4,81.5,71.0,61.1,66.2,60.9,58.4,92,72,46,30.21,30.10,11,1,11,0.00
2012-11-5,78.8,71.4,65.7,63.4,61.0,55.2,87,71,47,30.11,30.01,9,2,11,0.00
2012-11-6,82.5,72.9,65.6,66.5,60.3,53.5,91,68,38,30.03,29.90,20,4,20,0.00
2012-11-7,69.8,65.2,58.6,63.2,53.4,47.1,92,67,49,30.09,29.93,22,5,26,0.00
2012-11-8,69.5,61.7,55.6,51.7,45.0,36.5,78,56,32,30.21,30.06,20,4,20,0.00
2012-11-9,74.6,66.7,57.5,57.9,52.6,49.3,82,62,44,30.30,30.19,16,4,18,0.00
2012-11-10,75.2,72.3,69.9,58.1,53.9,50.5,60,52,45,30.36,30.26,19,6,21,0.00
2012-11-11,80.2,75.7,72.6,63.2,58.3,51.0,66,55,40,30.34,30.27,25,9,25,0.00
2012-11-12,80.4,76.7,74.5,65.9,64.5,61.5,73,66,57,30.29,30.21,24,9,25,0.00
2012-11-13,80.3,76.3,73.3,65.4,63.9,62.0,72,65,56,30.23,30.13,14,5,15,0.00
2012-11-14,80.4,75.2,68.8,67.7,64.1,60.2,88,69,57,30.21,30.14,16,4,17,0.00
2012-11-15,80.8,72.8,65.7,66.7,63.7,58.4,89,74,48,30.19,30.12,14,3,14,0.00
2012-11-16,66.8,65.4,64.7,63.4,62.6,62.1,93,91,89,30.16,30.14,10,3,10,0.00
2012-11-19,71.8,64.9,60.0,59.2,58.0,57.0,90,79,63,30.21,30.11,14,4,14,0.00
2012-11-20,76.0,65.7,59.4,64.3,60.3,57.0,94,83,65,30.12,30.01,15,4,16,0.00
2012-11-21,75.8,66.4,59.5,61.1,56.9,51.1,92,73,47,30.12,30.01,15,4,17,0.00
2012-11-22,73.8,64.1,57.4,54.8,51.1,48.7,79,63,47,30.20,30.08,18,6,21,0.00
2012-11-23,77.0,64.9,57.0,56.5,53.4,49.8,83,68,45,30.23,30.13,13,3,15,0.00
2012-11-24,75.1,63.3,53.4,55.2,51.2,47.0,84,67,39,30.20,30.08,18,3,19,0.00
2012-11-25,77.8,65.6,54.5,59.3,56.1,52.3,93,73,44,30.23,30.14,10,2,10,0.00
2012-11-26,79.3,70.4,62.6,64.6,60.5,58.0,90,73,50,30.29,30.20,14,2,14,0.00
2012-11-27,80.5,75.0,70.4,63.9,61.8,59.6,79,64,50,30.28,30.17,13,4,14,0.00
2012-11-28,79.1,70.8,64.8,65.7,63.6,57.2,91,79,49,30.28,30.18,13,2,15,1.30
2012-11-29,77.4,73.0,64.0,65.6,61.4,55.8,92,68,54,30.30,30.23,22,7,22,0.10
2012-11-30,76.2,73.0,71.2,62.0,59.5,56.5,70,63,55,30.32,30.22,22,8,26,0.00
2012-12-1,78.0,74.1,71.9,63.3,60.6,58.0,71,63,53,30.29,30.22,19,7,19,0.00
2012-12-2,79.0,75.0,72.8,64.4,62.5,60.5,71,65,58,30.33,30.24,20,8,21,0.00
2012-12-3,77.4,73.7,71.8,63.7,58.7,49.3,73,60,43,30.34,30.26,17,7,21,0.00
2012-12-4,76.8,73.6,70.9,62.3,58.1,49.5,74,59,46,30.33,30.24,18,6,19,0.00
2012-12-5,80.2,74.6,71.5,64.0,61.3,57.8,72,64,50,30.25,30.12,14,5,15,0.00
2012-12-6,79.4,74.7,70.3,67.6,65.3,61.2,87,73,57,30.12,29.99,18,4,22,0.00
2012-12-7,80.9,73.5,66.4,69.5,65.4,62.8,92,76,58,30.08,30.00,14,2,15,0.00
2012-12-8,81.3,75.4,67.0,71.8,68.0,63.9,92,78,62,30.13,30.05,15,3,15,0.00
2012-12-9,82.4,76.5,70.0,73.3,71.2,67.2,92,84,66,30.18,30.08,11,2,13,0.00
2012-12-10,83.5,76.9,68.8,74.2,71.0,65.7,92,83,68,30.12,29.99,17,4,18,0.00
2012-12-11,85.3,77.7,71.6,74.7,72.2,68.3,92,83,64,30.16,30.00,14,4,17,0.80
2012-12-12,72.7,72.2,71.5,70.6,70.1,69.2,94,93,92,30.15,30.12,0,0,0,0.10
2012-12-18,82.7,77.5,69.8,68.9,64.7,62.0,94,65,51,30.10,30.00,16,4,16,0.00
2012-12-19,80.8,71.8,60.3,64.9,60.2,53.8,84,69,40,30.18,30.09,11,2,12,0.00
2012-12-20,81.0,75.1,70.6,65.5,63.7,58.6,82,68,50,30.18,30.05,14,4,17,0.00
2012-12-21,71.4,61.8,50.2,65.8,41.1,28.5,86,49,26,30.26,30.05,22,6,22,0.00
2012-12-22,65.7,54.0,44.4,37.0,29.7,20.4,62,42,19,30.34,30.25,15,4,17,0.00
2012-12-23,71.0,60.1,49.3,55.4,45.4,34.0,76,59,44,30.33,30.23,11,2,12,0.00
2012-12-24,76.5,66.5,57.3,58.6,55.5,51.0,85,69,48,30.24,30.08,16,2,16,0.00
2012-12-25,78.5,69.4,58.9,63.0,59.4,56.1,91,72,51,30.14,30.02,14,3,16,0.00
2012-12-26,83.3,74.8,62.6,69.3,65.2,57.5,89,73,52,30.07,29.90,24,7,24,0.00
2012-12-27,71.1,60.2,51.9,58.0,49.0,41.0,90,69,34,30.17,30.06,13,2,15,0.00
2012-12-28,75.8,68.1,53.8,69.4,61.9,50.0,89,81,63,30.18,30.06,12,3,14,0.00
2012-12-29,80.7,74.9,61.0,71.7,67.6,52.8,89,78,63,30.19,30.00,21,6,21,0.00
2012-12-30,67.7,60.4,49.4,55.2,50.5,44.9,86,70,59,30.39,30.19,18,6,19,0.00
2012-12-31,73.4,69.6,65.7,60.0,56.0,52.0,67,62,55,30.41,30.28,18,7,18,0.00
2013-1-1,78.1,72.2,66.3,60.8,58.7,56.3,76,63,53,30.29,30.14,18,3,21,0.00